sensor_id;sensor_type;location;lat;lon;timestamp;P1;durP1;ratioP1;P2;durP2;ratioP2
49422;SDS011;36998;51.974;20.150;2022-10-29T00:01:43;21.45;;;9.70;;
49422;SDS011;36998;51.974;20.150;2022-10-29T00:04:09;19.60;;;9.57;;
49422;SDS011;36998;51.974;20.150;2022-10-29T00:06:34;21.20;;;9.98;;
49422;SDS011;36998;51.974;20.150;2022-10-29T00:09:00;19.75;;;9.65;;
49422;SDS011;36998;51.974;20.150;2022-10-29T00:11:25;17.90;;;9.02;;
49422;SDS011;36998;51.974;20.150;2022-10-29T00:13:54;18.83;;;9.55;;
49422;SDS011;36998;51.974;20.150;2022-10-29T00:16:23;22.50;;;10.70;;
49422;SDS011;36998;51.974;20.150;2022-10-29T00:18:50;21.23;;;10.55;;
49422;SDS011;36998;51.974;20.150;2022-10-29T00:21:19;17.75;;;9.45;;
49422;SDS011;36998;51.974;20.150;2022-10-29T00:23:47;20.92;;;10.30;;
49422;SDS011;36998;51.974;20.150;2022-10-29T00:26:13;17.90;;;9.10;;
49422;SDS011;36998;51.974;20.150;2022-10-29T00:28:39;17.40;;;8.73;;
49422;SDS011;36998;51.974;20.150;2022-10-29T00:31:06;19.35;;;9.23;;
49422;SDS011;36998;51.974;20.150;2022-10-29T00:33:43;17.67;;;9.35;;
49422;SDS011;36998;51.974;20.150;2022-10-29T00:36:12;17.40;;;8.73;;
49422;SDS011;36998;51.974;20.150;2022-10-29T00:38:39;19.80;;;9.20;;
49422;SDS011;36998;51.974;20.150;2022-10-29T00:41:07;21.15;;;9.75;;
49422;SDS011;36998;51.974;20.150;2022-10-29T00:43:36;16.85;;;10.02;;
49422;SDS011;36998;51.974;20.150;2022-10-29T00:46:12;21.38;;;9.30;;
49422;SDS011;36998;51.974;20.150;2022-10-29T00:48:42;17.63;;;8.63;;
49422;SDS011;36998;51.974;20.150;2022-10-29T00:51:12;23.08;;;9.00;;
49422;SDS011;36998;51.974;20.150;2022-10-29T00:53:43;22.92;;;9.15;;
49422;SDS011;36998;51.974;20.150;2022-10-29T00:56:14;21.75;;;8.48;;
49422;SDS011;36998;51.974;20.150;2022-10-29T00:58:40;16.73;;;8.98;;
49422;SDS011;36998;51.974;20.150;2022-10-29T01:01:06;17.85;;;9.30;;
49422;SDS011;36998;51.974;20.150;2022-10-29T01:03:32;16.48;;;9.10;;
49422;SDS011;36998;51.974;20.150;2022-10-29T01:05:57;17.05;;;8.70;;
49422;SDS011;36998;51.974;20.150;2022-10-29T01:08:25;18.58;;;8.40;;
49422;SDS011;36998;51.974;20.150;2022-10-29T01:19:57;19.63;;;7.60;;
49422;SDS011;36998;51.974;20.150;2022-10-29T01:22:41;23.17;;;7.80;;
49422;SDS011;36998;51.974;20.150;2022-10-29T01:25:14;15.43;;;6.90;;
49422;SDS011;36998;51.974;20.150;2022-10-29T01:44:34;15.77;;;7.88;;
49422;SDS011;36998;51.974;20.150;2022-10-29T01:47:21;14.10;;;6.60;;
49422;SDS011;36998;51.974;20.150;2022-10-29T01:49:51;22.75;;;8.05;;
49422;SDS011;36998;51.974;20.150;2022-10-29T01:52:23;12.93;;;7.05;;
49422;SDS011;36998;51.974;20.150;2022-10-29T01:54:51;14.32;;;7.78;;
49422;SDS011;36998;51.974;20.150;2022-10-29T01:57:33;15.27;;;7.47;;
49422;SDS011;36998;51.974;20.150;2022-10-29T02:05:37;18.35;;;7.40;;
49422;SDS011;36998;51.974;20.150;2022-10-29T02:08:34;20.30;;;7.57;;
49422;SDS011;36998;51.974;20.150;2022-10-29T02:11:20;13.13;;;6.57;;
49422;SDS011;36998;51.974;20.150;2022-10-29T02:13:57;14.27;;;7.05;;
49422;SDS011;36998;51.974;20.150;2022-10-29T02:16:28;20.75;;;7.40;;
49422;SDS011;36998;51.974;20.150;2022-10-29T02:18:55;13.00;;;6.53;;
49422;SDS011;36998;51.974;20.150;2022-10-29T02:21:22;18.23;;;9.30;;
49422;SDS011;36998;51.974;20.150;2022-10-29T02:23:48;14.90;;;6.85;;
49422;SDS011;36998;51.974;20.150;2022-10-29T02:26:14;15.85;;;6.85;;
49422;SDS011;36998;51.974;20.150;2022-10-29T02:28:40;18.00;;;6.95;;
49422;SDS011;36998;51.974;20.150;2022-10-29T02:31:06;15.27;;;7.15;;
49422;SDS011;36998;51.974;20.150;2022-10-29T02:33:31;10.45;;;6.95;;
49422;SDS011;36998;51.974;20.150;2022-10-29T02:35:57;16.38;;;6.78;;
49422;SDS011;36998;51.974;20.150;2022-10-29T02:38:22;13.82;;;6.28;;
49422;SDS011;36998;51.974;20.150;2022-10-29T02:40:48;14.10;;;6.72;;
49422;SDS011;36998;51.974;20.150;2022-10-29T02:43:13;14.93;;;7.45;;
49422;SDS011;36998;51.974;20.150;2022-10-29T02:45:39;14.52;;;7.53;;
49422;SDS011;36998;51.974;20.150;2022-10-29T02:48:04;10.52;;;6.85;;
49422;SDS011;36998;51.974;20.150;2022-10-29T02:50:30;17.33;;;6.90;;
49422;SDS011;36998;51.974;20.150;2022-10-29T02:52:55;13.05;;;6.18;;
49422;SDS011;36998;51.974;20.150;2022-10-29T02:55:29;15.27;;;6.68;;
49422;SDS011;36998;51.974;20.150;2022-10-29T02:57:54;14.82;;;6.35;;
49422;SDS011;36998;51.974;20.150;2022-10-29T03:00:20;14.65;;;5.50;;
49422;SDS011;36998;51.974;20.150;2022-10-29T03:02:45;13.02;;;6.75;;
49422;SDS011;36998;51.974;20.150;2022-10-29T03:05:15;17.50;;;7.35;;
49422;SDS011;36998;51.974;20.150;2022-10-29T03:07:40;17.52;;;6.95;;
49422;SDS011;36998;51.974;20.150;2022-10-29T03:10:06;14.73;;;6.18;;
49422;SDS011;36998;51.974;20.150;2022-10-29T03:12:32;11.07;;;6.30;;
49422;SDS011;36998;51.974;20.150;2022-10-29T03:14:58;17.15;;;6.70;;
49422;SDS011;36998;51.974;20.150;2022-10-29T03:17:24;16.80;;;6.85;;
49422;SDS011;36998;51.974;20.150;2022-10-29T03:19:49;17.63;;;6.85;;
49422;SDS011;36998;51.974;20.150;2022-10-29T03:22:15;14.73;;;6.65;;
49422;SDS011;36998;51.974;20.150;2022-10-29T03:24:40;14.80;;;6.50;;
49422;SDS011;36998;51.974;20.150;2022-10-29T03:27:06;18.75;;;6.63;;
49422;SDS011;36998;51.974;20.150;2022-10-29T03:29:31;13.27;;;6.32;;
49422;SDS011;36998;51.974;20.150;2022-10-29T03:31:57;14.65;;;6.13;;
49422;SDS011;36998;51.974;20.150;2022-10-29T03:34:22;14.75;;;7.20;;
49422;SDS011;36998;51.974;20.150;2022-10-29T03:36:48;12.07;;;6.55;;
49422;SDS011;36998;51.974;20.150;2022-10-29T03:39:13;15.40;;;6.57;;
49422;SDS011;36998;51.974;20.150;2022-10-29T03:41:39;10.50;;;6.32;;
49422;SDS011;36998;51.974;20.150;2022-10-29T03:44:04;19.40;;;6.65;;
49422;SDS011;36998;51.974;20.150;2022-10-29T03:46:30;17.48;;;6.10;;
49422;SDS011;36998;51.974;20.150;2022-10-29T03:48:55;12.30;;;6.55;;
49422;SDS011;36998;51.974;20.150;2022-10-29T03:51:21;15.32;;;6.50;;
49422;SDS011;36998;51.974;20.150;2022-10-29T03:53:46;10.90;;;5.95;;
49422;SDS011;36998;51.974;20.150;2022-10-29T03:56:13;12.73;;;6.32;;
49422;SDS011;36998;51.974;20.150;2022-10-29T03:58:38;15.75;;;7.00;;
49422;SDS011;36998;51.974;20.150;2022-10-29T04:01:04;12.30;;;6.32;;
49422;SDS011;36998;51.974;20.150;2022-10-29T04:03:32;16.42;;;6.07;;
49422;SDS011;36998;51.974;20.150;2022-10-29T04:05:59;13.02;;;6.38;;
49422;SDS011;36998;51.974;20.150;2022-10-29T04:08:26;14.45;;;6.53;;
49422;SDS011;36998;51.974;20.150;2022-10-29T04:10:52;11.95;;;6.40;;
49422;SDS011;36998;51.974;20.150;2022-10-29T04:13:18;12.38;;;6.13;;
49422;SDS011;36998;51.974;20.150;2022-10-29T04:15:44;14.80;;;6.13;;
49422;SDS011;36998;51.974;20.150;2022-10-29T04:18:10;12.65;;;5.80;;
49422;SDS011;36998;51.974;20.150;2022-10-29T04:20:37;17.52;;;6.65;;
49422;SDS011;36998;51.974;20.150;2022-10-29T04:23:03;9.77;;;5.60;;
49422;SDS011;36998;51.974;20.150;2022-10-29T04:25:29;12.45;;;6.30;;
49422;SDS011;36998;51.974;20.150;2022-10-29T04:27:54;11.20;;;6.00;;
49422;SDS011;36998;51.974;20.150;2022-10-29T04:30:20;13.40;;;6.20;;
49422;SDS011;36998;51.974;20.150;2022-10-29T04:32:46;14.48;;;5.85;;
49422;SDS011;36998;51.974;20.150;2022-10-29T04:35:12;12.48;;;5.82;;
49422;SDS011;36998;51.974;20.150;2022-10-29T04:37:37;9.90;;;5.60;;
49422;SDS011;36998;51.974;20.150;2022-10-29T04:40:03;14.68;;;5.68;;
49422;SDS011;36998;51.974;20.150;2022-10-29T04:42:31;17.05;;;6.60;;
49422;SDS011;36998;51.974;20.150;2022-10-29T04:45:00;14.93;;;5.72;;
49422;SDS011;36998;51.974;20.150;2022-10-29T04:47:25;15.85;;;5.60;;
49422;SDS011;36998;51.974;20.150;2022-10-29T04:49:50;13.32;;;6.15;;
49422;SDS011;36998;51.974;20.150;2022-10-29T04:52:16;11.40;;;6.32;;
49422;SDS011;36998;51.974;20.150;2022-10-29T04:54:41;12.13;;;5.70;;
49422;SDS011;36998;51.974;20.150;2022-10-29T04:57:07;11.95;;;6.18;;
49422;SDS011;36998;51.974;20.150;2022-10-29T04:59:32;14.05;;;5.28;;
49422;SDS011;36998;51.974;20.150;2022-10-29T05:01:58;25.35;;;6.05;;
49422;SDS011;36998;51.974;20.150;2022-10-29T05:04:23;13.52;;;6.15;;
49422;SDS011;36998;51.974;20.150;2022-10-29T05:06:49;21.98;;;12.25;;
49422;SDS011;36998;51.974;20.150;2022-10-29T05:09:14;12.38;;;6.68;;
49422;SDS011;36998;51.974;20.150;2022-10-29T05:11:40;12.90;;;6.75;;
49422;SDS011;36998;51.974;20.150;2022-10-29T05:14:05;11.82;;;5.90;;
49422;SDS011;36998;51.974;20.150;2022-10-29T05:16:31;19.17;;;6.25;;
49422;SDS011;36998;51.974;20.150;2022-10-29T05:18:57;15.57;;;6.22;;
49422;SDS011;36998;51.974;20.150;2022-10-29T05:21:22;16.10;;;6.22;;
49422;SDS011;36998;51.974;20.150;2022-10-29T05:23:48;16.77;;;6.65;;
49422;SDS011;36998;51.974;20.150;2022-10-29T05:26:13;17.58;;;7.03;;
49422;SDS011;36998;51.974;20.150;2022-10-29T05:28:39;12.27;;;6.25;;
49422;SDS011;36998;51.974;20.150;2022-10-29T05:31:04;13.27;;;6.13;;
49422;SDS011;36998;51.974;20.150;2022-10-29T05:33:29;18.25;;;6.43;;
49422;SDS011;36998;51.974;20.150;2022-10-29T05:35:55;60.22;;;30.13;;
49422;SDS011;36998;51.974;20.150;2022-10-29T05:38:23;19.95;;;7.72;;
49422;SDS011;36998;51.974;20.150;2022-10-29T05:40:49;14.68;;;6.90;;
49422;SDS011;36998;51.974;20.150;2022-10-29T05:43:15;11.23;;;5.93;;
49422;SDS011;36998;51.974;20.150;2022-10-29T05:45:41;23.40;;;8.48;;
49422;SDS011;36998;51.974;20.150;2022-10-29T05:48:08;18.35;;;6.90;;
49422;SDS011;36998;51.974;20.150;2022-10-29T05:50:34;14.35;;;6.70;;
49422;SDS011;36998;51.974;20.150;2022-10-29T05:53:01;12.25;;;7.15;;
49422;SDS011;36998;51.974;20.150;2022-10-29T05:55:29;16.35;;;6.57;;
49422;SDS011;36998;51.974;20.150;2022-10-29T05:57:56;15.30;;;6.88;;
49422;SDS011;36998;51.974;20.150;2022-10-29T06:00:23;14.60;;;6.82;;
49422;SDS011;36998;51.974;20.150;2022-10-29T06:02:50;16.20;;;6.35;;
49422;SDS011;36998;51.974;20.150;2022-10-29T06:05:15;14.68;;;6.45;;
49422;SDS011;36998;51.974;20.150;2022-10-29T06:07:41;12.20;;;5.75;;
49422;SDS011;36998;51.974;20.150;2022-10-29T06:10:06;12.63;;;6.25;;
49422;SDS011;36998;51.974;20.150;2022-10-29T06:12:32;11.82;;;6.68;;
49422;SDS011;36998;51.974;20.150;2022-10-29T06:14:58;13.45;;;5.97;;
49422;SDS011;36998;51.974;20.150;2022-10-29T06:17:24;10.38;;;6.22;;
49422;SDS011;36998;51.974;20.150;2022-10-29T06:19:50;16.52;;;6.65;;
49422;SDS011;36998;51.974;20.150;2022-10-29T06:22:16;11.23;;;5.50;;
49422;SDS011;36998;51.974;20.150;2022-10-29T06:24:41;20.10;;;6.30;;
49422;SDS011;36998;51.974;20.150;2022-10-29T06:27:07;12.60;;;6.18;;
49422;SDS011;36998;51.974;20.150;2022-10-29T06:29:32;13.48;;;5.78;;
49422;SDS011;36998;51.974;20.150;2022-10-29T06:31:58;16.98;;;6.93;;
49422;SDS011;36998;51.974;20.150;2022-10-29T06:34:24;17.73;;;6.10;;
49422;SDS011;36998;51.974;20.150;2022-10-29T06:36:49;12.18;;;5.78;;
49422;SDS011;36998;51.974;20.150;2022-10-29T06:39:16;11.52;;;6.40;;
49422;SDS011;36998;51.974;20.150;2022-10-29T06:41:42;13.50;;;5.35;;
49422;SDS011;36998;51.974;20.150;2022-10-29T06:44:08;10.93;;;5.50;;
49422;SDS011;36998;51.974;20.150;2022-10-29T06:46:33;11.65;;;6.28;;
49422;SDS011;36998;51.974;20.150;2022-10-29T06:48:59;12.35;;;5.93;;
49422;SDS011;36998;51.974;20.150;2022-10-29T06:51:26;15.65;;;5.43;;
49422;SDS011;36998;51.974;20.150;2022-10-29T06:53:51;11.88;;;5.78;;
49422;SDS011;36998;51.974;20.150;2022-10-29T06:56:19;12.02;;;6.15;;
49422;SDS011;36998;51.974;20.150;2022-10-29T06:58:45;12.02;;;6.68;;
49422;SDS011;36998;51.974;20.150;2022-10-29T07:01:11;11.15;;;5.57;;
49422;SDS011;36998;51.974;20.150;2022-10-29T07:03:37;19.25;;;5.68;;
49422;SDS011;36998;51.974;20.150;2022-10-29T07:06:03;14.23;;;5.75;;
49422;SDS011;36998;51.974;20.150;2022-10-29T07:08:28;16.45;;;5.40;;
49422;SDS011;36998;51.974;20.150;2022-10-29T07:10:54;11.68;;;7.13;;
49422;SDS011;36998;51.974;20.150;2022-10-29T07:13:20;15.07;;;5.93;;
49422;SDS011;36998;51.974;20.150;2022-10-29T07:15:46;12.13;;;5.43;;
49422;SDS011;36998;51.974;20.150;2022-10-29T07:18:11;14.32;;;6.15;;
49422;SDS011;36998;51.974;20.150;2022-10-29T07:20:37;17.42;;;6.63;;
49422;SDS011;36998;51.974;20.150;2022-10-29T07:23:05;20.20;;;6.88;;
49422;SDS011;36998;51.974;20.150;2022-10-29T07:25:31;15.02;;;6.65;;
49422;SDS011;36998;51.974;20.150;2022-10-29T07:28:01;17.15;;;6.85;;
49422;SDS011;36998;51.974;20.150;2022-10-29T07:30:38;16.27;;;6.88;;
49422;SDS011;36998;51.974;20.150;2022-10-29T07:33:04;12.80;;;6.38;;
49422;SDS011;36998;51.974;20.150;2022-10-29T07:35:29;19.17;;;7.10;;
49422;SDS011;36998;51.974;20.150;2022-10-29T07:38:01;13.05;;;6.18;;
49422;SDS011;36998;51.974;20.150;2022-10-29T07:40:27;14.23;;;6.60;;
49422;SDS011;36998;51.974;20.150;2022-10-29T07:42:53;13.27;;;5.45;;
49422;SDS011;36998;51.974;20.150;2022-10-29T07:45:19;16.40;;;6.18;;
49422;SDS011;36998;51.974;20.150;2022-10-29T07:47:45;15.18;;;5.95;;
49422;SDS011;36998;51.974;20.150;2022-10-29T07:50:11;14.10;;;6.18;;
49422;SDS011;36998;51.974;20.150;2022-10-29T07:52:40;19.00;;;6.70;;
49422;SDS011;36998;51.974;20.150;2022-10-29T07:55:06;16.52;;;6.90;;
49422;SDS011;36998;51.974;20.150;2022-10-29T07:57:32;24.45;;;6.30;;
49422;SDS011;36998;51.974;20.150;2022-10-29T07:59:58;11.05;;;6.25;;
49422;SDS011;36998;51.974;20.150;2022-10-29T08:02:24;14.80;;;5.55;;
49422;SDS011;36998;51.974;20.150;2022-10-29T08:04:49;15.95;;;6.10;;
49422;SDS011;36998;51.974;20.150;2022-10-29T08:07:15;13.63;;;5.57;;
49422;SDS011;36998;51.974;20.150;2022-10-29T08:09:40;15.25;;;6.20;;
49422;SDS011;36998;51.974;20.150;2022-10-29T08:12:09;14.20;;;5.93;;
49422;SDS011;36998;51.974;20.150;2022-10-29T08:14:35;15.48;;;6.57;;
49422;SDS011;36998;51.974;20.150;2022-10-29T08:17:01;20.55;;;6.38;;
49422;SDS011;36998;51.974;20.150;2022-10-29T08:19:26;17.20;;;6.45;;
49422;SDS011;36998;51.974;20.150;2022-10-29T08:21:54;18.35;;;6.95;;
49422;SDS011;36998;51.974;20.150;2022-10-29T08:24:20;20.60;;;6.18;;
49422;SDS011;36998;51.974;20.150;2022-10-29T08:26:46;12.63;;;6.55;;
49422;SDS011;36998;51.974;20.150;2022-10-29T08:29:11;18.13;;;6.40;;
49422;SDS011;36998;51.974;20.150;2022-10-29T08:31:37;13.13;;;6.22;;
49422;SDS011;36998;51.974;20.150;2022-10-29T08:34:02;12.43;;;5.75;;
49422;SDS011;36998;51.974;20.150;2022-10-29T08:36:27;14.02;;;6.68;;
49422;SDS011;36998;51.974;20.150;2022-10-29T08:38:53;16.00;;;6.25;;
49422;SDS011;36998;51.974;20.150;2022-10-29T08:44:04;19.90;;;7.22;;
49422;SDS011;36998;51.974;20.150;2022-10-29T08:49:16;15.45;;;6.75;;
49422;SDS011;36998;51.974;20.150;2022-10-29T08:51:52;15.15;;;6.82;;
49422;SDS011;36998;51.974;20.150;2022-10-29T08:54:22;17.42;;;7.43;;
49422;SDS011;36998;51.974;20.150;2022-10-29T08:56:52;18.40;;;6.78;;
49422;SDS011;36998;51.974;20.150;2022-10-29T08:59:22;23.73;;;7.75;;
49422;SDS011;36998;51.974;20.150;2022-10-29T09:01:50;15.43;;;6.40;;
49422;SDS011;36998;51.974;20.150;2022-10-29T09:04:30;13.57;;;6.40;;
49422;SDS011;36998;51.974;20.150;2022-10-29T09:10:08;16.50;;;7.43;;
49422;SDS011;36998;51.974;20.150;2022-10-29T09:12:51;19.42;;;7.78;;
49422;SDS011;36998;51.974;20.150;2022-10-29T09:18:12;16.42;;;7.80;;
49422;SDS011;36998;51.974;20.150;2022-10-29T09:26:15;27.13;;;8.10;;
49422;SDS011;36998;51.974;20.150;2022-10-29T09:28:50;16.08;;;7.57;;
49422;SDS011;36998;51.974;20.150;2022-10-29T09:31:24;21.48;;;8.57;;
49422;SDS011;36998;51.974;20.150;2022-10-29T09:34:03;22.95;;;9.00;;
49422;SDS011;36998;51.974;20.150;2022-10-29T09:36:36;18.77;;;7.97;;
49422;SDS011;36998;51.974;20.150;2022-10-29T09:39:02;22.35;;;8.77;;
49422;SDS011;36998;51.974;20.150;2022-10-29T09:41:34;18.50;;;8.07;;
49422;SDS011;36998;51.974;20.150;2022-10-29T09:44:04;22.60;;;8.93;;
49422;SDS011;36998;51.974;20.150;2022-10-29T09:49:28;20.63;;;9.73;;
49422;SDS011;36998;51.974;20.150;2022-10-29T09:51:57;19.80;;;8.65;;
49422;SDS011;36998;51.974;20.150;2022-10-29T09:54:28;22.88;;;9.13;;
49422;SDS011;36998;51.974;20.150;2022-10-29T09:56:56;23.13;;;8.52;;
49422;SDS011;36998;51.974;20.150;2022-10-29T09:59:26;22.35;;;10.70;;
49422;SDS011;36998;51.974;20.150;2022-10-29T10:01:56;23.60;;;9.70;;
49422;SDS011;36998;51.974;20.150;2022-10-29T10:04:26;24.25;;;14.07;;
49422;SDS011;36998;51.974;20.150;2022-10-29T10:07:00;23.65;;;10.48;;
49422;SDS011;36998;51.974;20.150;2022-10-29T10:09:25;24.98;;;10.25;;
49422;SDS011;36998;51.974;20.150;2022-10-29T10:11:51;22.80;;;10.02;;
49422;SDS011;36998;51.974;20.150;2022-10-29T10:14:21;21.25;;;9.95;;
49422;SDS011;36998;51.974;20.150;2022-10-29T10:16:58;20.63;;;9.48;;
49422;SDS011;36998;51.974;20.150;2022-10-29T10:19:26;21.15;;;9.32;;
49422;SDS011;36998;51.974;20.150;2022-10-29T10:21:55;24.38;;;10.05;;
49422;SDS011;36998;51.974;20.150;2022-10-29T10:24:34;23.17;;;9.82;;
49422;SDS011;36998;51.974;20.150;2022-10-29T10:29:42;20.48;;;8.95;;
49422;SDS011;36998;51.974;20.150;2022-10-29T10:32:17;21.48;;;9.90;;
49422;SDS011;36998;51.974;20.150;2022-10-29T10:34:43;20.67;;;8.98;;
49422;SDS011;36998;51.974;20.150;2022-10-29T10:39:40;24.10;;;9.52;;
49422;SDS011;36998;51.974;20.150;2022-10-29T10:42:24;18.58;;;10.55;;
49422;SDS011;36998;51.974;20.150;2022-10-29T10:44:55;26.58;;;9.98;;
49422;SDS011;36998;51.974;20.150;2022-10-29T10:47:25;20.25;;;9.90;;
49422;SDS011;36998;51.974;20.150;2022-10-29T10:49:53;22.75;;;9.68;;
49422;SDS011;36998;51.974;20.150;2022-10-29T10:52:36;26.58;;;10.55;;
49422;SDS011;36998;51.974;20.150;2022-10-29T10:55:04;20.40;;;9.55;;
49422;SDS011;36998;51.974;20.150;2022-10-29T10:57:35;25.63;;;9.70;;
49422;SDS011;36998;51.974;20.150;2022-10-29T11:00:05;17.88;;;9.73;;
49422;SDS011;36998;51.974;20.150;2022-10-29T11:05:17;20.23;;;10.15;;
49422;SDS011;36998;51.974;20.150;2022-10-29T11:08:16;22.45;;;8.93;;
49422;SDS011;36998;51.974;20.150;2022-10-29T11:10:52;23.65;;;9.90;;
49422;SDS011;36998;51.974;20.150;2022-10-29T11:13:21;18.27;;;8.90;;
49422;SDS011;36998;51.974;20.150;2022-10-29T11:21:15;17.45;;;8.10;;
49422;SDS011;36998;51.974;20.150;2022-10-29T11:26:19;13.45;;;7.30;;
49422;SDS011;36998;51.974;20.150;2022-10-29T11:28:57;20.10;;;8.30;;
49422;SDS011;36998;51.974;20.150;2022-10-29T11:31:31;14.18;;;8.57;;
49422;SDS011;36998;51.974;20.150;2022-10-29T11:36:36;17.55;;;7.97;;
49422;SDS011;36998;51.974;20.150;2022-10-29T11:39:08;18.58;;;7.63;;
49422;SDS011;36998;51.974;20.150;2022-10-29T11:41:39;23.30;;;8.18;;
49422;SDS011;36998;51.974;20.150;2022-10-29T11:44:12;23.02;;;9.15;;
49422;SDS011;36998;51.974;20.150;2022-10-29T11:52:04;25.45;;;7.80;;
49422;SDS011;36998;51.974;20.150;2022-10-29T11:58:09;21.85;;;7.22;;
49422;SDS011;36998;51.974;20.150;2022-10-29T12:01:11;18.48;;;6.57;;
49422;SDS011;36998;51.974;20.150;2022-10-29T12:06:36;18.13;;;6.88;;
49422;SDS011;36998;51.974;20.150;2022-10-29T12:12:02;16.85;;;7.78;;
49422;SDS011;36998;51.974;20.150;2022-10-29T12:14:45;12.32;;;6.88;;
49422;SDS011;36998;51.974;20.150;2022-10-29T12:17:18;19.00;;;7.32;;
49422;SDS011;36998;51.974;20.150;2022-10-29T12:22:27;18.42;;;7.35;;
49422;SDS011;36998;51.974;20.150;2022-10-29T12:30:10;13.63;;;7.68;;
49422;SDS011;36998;51.974;20.150;2022-10-29T12:35:53;16.52;;;7.03;;
49422;SDS011;36998;51.974;20.150;2022-10-29T12:38:39;15.75;;;8.48;;
49422;SDS011;36998;51.974;20.150;2022-10-29T12:41:22;21.45;;;7.85;;
49422;SDS011;36998;51.974;20.150;2022-10-29T12:43:52;18.90;;;7.78;;
49422;SDS011;36998;51.974;20.150;2022-10-29T12:46:30;19.73;;;7.20;;
49422;SDS011;36998;51.974;20.150;2022-10-29T12:49:14;16.58;;;7.50;;
49422;SDS011;36998;51.974;20.150;2022-10-29T12:52:10;15.48;;;7.20;;
49422;SDS011;36998;51.974;20.150;2022-10-29T12:54:43;17.38;;;6.85;;
49422;SDS011;36998;51.974;20.150;2022-10-29T12:59:37;17.38;;;6.45;;
49422;SDS011;36998;51.974;20.150;2022-10-29T13:02:16;16.48;;;6.07;;
49422;SDS011;36998;51.974;20.150;2022-10-29T13:07:35;11.75;;;6.47;;
49422;SDS011;36998;51.974;20.150;2022-10-29T13:15:22;20.40;;;5.82;;
49422;SDS011;36998;51.974;20.150;2022-10-29T13:17:52;13.98;;;6.47;;
49422;SDS011;36998;51.974;20.150;2022-10-29T13:20:20;21.10;;;6.68;;
49422;SDS011;36998;51.974;20.150;2022-10-29T13:30:34;14.43;;;6.78;;
49422;SDS011;36998;51.974;20.150;2022-10-29T13:43:59;17.75;;;7.60;;
49422;SDS011;36998;51.974;20.150;2022-10-29T13:49:30;18.70;;;7.55;;
49422;SDS011;36998;51.974;20.150;2022-10-29T13:52:04;20.03;;;7.77;;
49422;SDS011;36998;51.974;20.150;2022-10-29T13:54:52;16.10;;;7.43;;
49422;SDS011;36998;51.974;20.150;2022-10-29T13:57:23;23.23;;;7.45;;
49422;SDS011;36998;51.974;20.150;2022-10-29T14:00:06;14.73;;;7.65;;
49422;SDS011;36998;51.974;20.150;2022-10-29T14:05:22;17.05;;;7.78;;
49422;SDS011;36998;51.974;20.150;2022-10-29T14:07:57;16.30;;;8.57;;
49422;SDS011;36998;51.974;20.150;2022-10-29T14:15:34;18.45;;;8.45;;
49422;SDS011;36998;51.974;20.150;2022-10-29T14:20:53;19.65;;;8.57;;
49422;SDS011;36998;51.974;20.150;2022-10-29T14:23:23;17.75;;;8.30;;
49422;SDS011;36998;51.974;20.150;2022-10-29T14:25:50;20.45;;;8.75;;
49422;SDS011;36998;51.974;20.150;2022-10-29T14:30:44;17.88;;;8.10;;
49422;SDS011;36998;51.974;20.150;2022-10-29T14:33:19;17.10;;;7.82;;
49422;SDS011;36998;51.974;20.150;2022-10-29T14:35:47;19.25;;;9.00;;
49422;SDS011;36998;51.974;20.150;2022-10-29T14:38:13;21.25;;;8.43;;
49422;SDS011;36998;51.974;20.150;2022-10-29T14:40:39;22.63;;;9.63;;
49422;SDS011;36998;51.974;20.150;2022-10-29T14:43:22;26.65;;;9.20;;
49422;SDS011;36998;51.974;20.150;2022-10-29T14:45:50;25.90;;;9.82;;
49422;SDS011;36998;51.974;20.150;2022-10-29T14:48:15;22.70;;;10.88;;
49422;SDS011;36998;51.974;20.150;2022-10-29T14:50:49;22.83;;;10.43;;
49422;SDS011;36998;51.974;20.150;2022-10-29T14:53:33;22.27;;;10.80;;
49422;SDS011;36998;51.974;20.150;2022-10-29T14:56:05;25.48;;;10.88;;
49422;SDS011;36998;51.974;20.150;2022-10-29T14:58:34;26.65;;;10.23;;
49422;SDS011;36998;51.974;20.150;2022-10-29T15:01:03;20.15;;;9.50;;
49422;SDS011;36998;51.974;20.150;2022-10-29T15:03:34;22.02;;;10.02;;
49422;SDS011;36998;51.974;20.150;2022-10-29T15:08:39;22.73;;;11.13;;
49422;SDS011;36998;51.974;20.150;2022-10-29T15:11:29;21.70;;;10.93;;
49422;SDS011;36998;51.974;20.150;2022-10-29T15:13:57;23.67;;;11.73;;
49422;SDS011;36998;51.974;20.150;2022-10-29T15:16:22;28.05;;;11.95;;
49422;SDS011;36998;51.974;20.150;2022-10-29T15:18:48;22.10;;;11.90;;
49422;SDS011;36998;51.974;20.150;2022-10-29T15:21:23;23.73;;;10.80;;
49422;SDS011;36998;51.974;20.150;2022-10-29T15:24:03;26.63;;;13.25;;
49422;SDS011;36998;51.974;20.150;2022-10-29T15:26:33;22.98;;;11.98;;
49422;SDS011;36998;51.974;20.150;2022-10-29T15:29:00;29.42;;;13.95;;
49422;SDS011;36998;51.974;20.150;2022-10-29T15:31:39;29.23;;;13.88;;
49422;SDS011;36998;51.974;20.150;2022-10-29T15:34:16;31.80;;;13.73;;
49422;SDS011;36998;51.974;20.150;2022-10-29T15:36:50;27.90;;;13.13;;
49422;SDS011;36998;51.974;20.150;2022-10-29T15:39:18;27.40;;;13.68;;
49422;SDS011;36998;51.974;20.150;2022-10-29T15:41:46;31.63;;;14.48;;
49422;SDS011;36998;51.974;20.150;2022-10-29T15:44:24;29.50;;;15.07;;
49422;SDS011;36998;51.974;20.150;2022-10-29T15:46:59;38.33;;;17.42;;
49422;SDS011;36998;51.974;20.150;2022-10-29T15:49:26;29.77;;;15.45;;
49422;SDS011;36998;51.974;20.150;2022-10-29T15:51:53;29.85;;;15.45;;
49422;SDS011;36998;51.974;20.150;2022-10-29T15:54:21;33.72;;;15.75;;
49422;SDS011;36998;51.974;20.150;2022-10-29T15:56:46;34.00;;;17.45;;
49422;SDS011;36998;51.974;20.150;2022-10-29T15:59:13;37.88;;;18.67;;
49422;SDS011;36998;51.974;20.150;2022-10-29T16:01:42;41.17;;;18.58;;
49422;SDS011;36998;51.974;20.150;2022-10-29T16:04:07;35.72;;;16.65;;
49422;SDS011;36998;51.974;20.150;2022-10-29T16:06:34;37.65;;;15.85;;
49422;SDS011;36998;51.974;20.150;2022-10-29T16:09:00;32.95;;;15.10;;
49422;SDS011;36998;51.974;20.150;2022-10-29T16:11:26;29.45;;;14.52;;
49422;SDS011;36998;51.974;20.150;2022-10-29T16:13:51;34.72;;;14.32;;
49422;SDS011;36998;51.974;20.150;2022-10-29T16:16:18;31.55;;;15.77;;
49422;SDS011;36998;51.974;20.150;2022-10-29T16:18:46;25.85;;;11.88;;
49422;SDS011;36998;51.974;20.150;2022-10-29T16:21:22;26.95;;;11.23;;
49422;SDS011;36998;51.974;20.150;2022-10-29T16:23:49;27.77;;;11.63;;
49422;SDS011;36998;51.974;20.150;2022-10-29T16:26:16;25.17;;;13.55;;
49422;SDS011;36998;51.974;20.150;2022-10-29T16:28:43;27.23;;;13.32;;
49422;SDS011;36998;51.974;20.150;2022-10-29T16:31:27;29.65;;;14.10;;
49422;SDS011;36998;51.974;20.150;2022-10-29T16:33:54;54.90;;;22.33;;
49422;SDS011;36998;51.974;20.150;2022-10-29T16:36:22;40.42;;;19.08;;
49422;SDS011;36998;51.974;20.150;2022-10-29T16:38:47;39.67;;;16.27;;
49422;SDS011;36998;51.974;20.150;2022-10-29T16:41:13;29.30;;;15.15;;
49422;SDS011;36998;51.974;20.150;2022-10-29T16:43:44;33.13;;;12.80;;
49422;SDS011;36998;51.974;20.150;2022-10-29T16:46:10;28.63;;;12.60;;
49422;SDS011;36998;51.974;20.150;2022-10-29T16:48:36;33.85;;;12.50;;
49422;SDS011;36998;51.974;20.150;2022-10-29T16:51:02;24.05;;;11.98;;
49422;SDS011;36998;51.974;20.150;2022-10-29T16:53:28;28.95;;;13.65;;